Time;durP1;ratioP1;P1;durP2;ratioP2;P2;SDS_P1;SDS_P2;PMS_P1;PMS_P2;Temp;Humidity;BMP_temperature;BMP_pressure;BME280_temperature;BME280_humidity;BME280_pressure;Samples;Min_cycle;Max_cycle;Signal;HPM_P1;HPM_P2
2023/12/06 00:00:54;;;;;;;42.27;20.20;;;;;;;;;;5075714;28;20202;-76
2023/12/06 00:03:35;;;;;;;50.83;22.13;;;;;;;;;;5076448;28;20199;-77
2023/12/06 00:06:03;;;;;;;50.30;20.53;;;;;;;;;;5075188;28;20207;-77
2023/12/06 00:08:30;;;;;;;48.63;20.37;;;;;;;;;;5076724;28;20199;-77
2023/12/06 00:10:59;;;;;;;46.90;20.40;;;;;;;;;;5076373;28;20223;-77
2023/12/06 00:13:26;;;;;;;56.10;21.50;;;;;;;;;;5058984;28;20206;-76
2023/12/06 00:15:54;;;;;;;47.83;21.43;;;;;;;;;;5075125;28;20202;-77
2023/12/06 00:18:21;;;;;;;53.57;21.57;;;;;;;;;;5076471;28;20199;-76
2023/12/06 00:20:49;;;;;;;52.73;22.67;;;;;;;;;;5074887;28;20261;-77
2023/12/06 00:23:17;;;;;;;50.27;21.87;;;;;;;;;;5076509;28;20210;-77
2023/12/06 00:25:44;;;;;;;44.73;21.63;;;;;;;;;;5076417;28;20227;-77
2023/12/06 00:28:11;;;;;;;44.07;19.77;;;;;;;;;;5076264;28;20258;-77
2023/12/06 00:30:38;;;;;;;46.00;21.53;;;;;;;;;;5076100;28;20215;-77
2023/12/06 00:33:06;;;;;;;48.03;20.13;;;;;;;;;;5074951;28;20196;-77
2023/12/06 00:35:33;;;;;;;41.93;18.63;;;;;;;;;;5076322;28;20227;-77
2023/12/06 00:38:00;;;;;;;44.77;19.87;;;;;;;;;;5075910;28;20211;-79
2023/12/06 00:40:27;;;;;;;46.30;20.87;;;;;;;;;;5076124;28;20656;-78
2023/12/06 00:42:55;;;;;;;51.43;21.77;;;;;;;;;;5058449;28;20192;-76
2023/12/06 00:45:22;;;;;;;50.07;20.63;;;;;;;;;;5075777;28;20202;-76
2023/12/06 00:47:49;;;;;;;43.97;18.93;;;;;;;;;;5075662;28;20200;-76
2023/12/06 00:50:16;;;;;;;48.37;19.40;;;;;;;;;;5075893;28;20192;-76
2023/12/06 00:52:44;;;;;;;46.80;20.53;;;;;;;;;;5074555;28;20234;-76
2023/12/06 00:55:11;;;;;;;46.20;20.23;;;;;;;;;;5074191;28;20261;-76
2023/12/06 00:57:38;;;;;;;55.10;21.83;;;;;;;;;;5075912;28;20195;-76
2023/12/06 01:00:06;;;;;;;48.20;21.70;;;;;;;;;;5075353;28;20217;-76
2023/12/06 01:02:33;;;;;;;55.47;21.57;;;;;;;;;;5074843;28;20210;-76
2023/12/06 01:05:01;;;;;;;46.30;19.73;;;;;;;;;;5074245;28;20208;-76
2023/12/06 01:07:28;;;;;;;50.13;20.50;;;;;;;;;;5074364;28;20203;-77
2023/12/06 01:09:55;;;;;;;49.63;20.20;;;;;;;;;;5075327;28;20227;-77
2023/12/06 01:12:22;;;;;;;52.87;21.50;;;;;;;;;;5075648;28;20280;-76
2023/12/06 01:14:51;;;;;;;54.43;21.07;;;;;;;;;;5075178;28;20654;-77
2023/12/06 01:17:18;;;;;;;51.27;21.13;;;;;;;;;;5075312;28;20199;-76
2023/12/06 01:19:46;;;;;;;58.23;22.43;;;;;;;;;;5075207;28;20202;-76
2023/12/06 01:22:13;;;;;;;53.37;21.43;;;;;;;;;;5074365;28;20582;-76
2023/12/06 01:24:40;;;;;;;49.23;21.50;;;;;;;;;;5073809;28;20238;-77
2023/12/06 01:27:07;;;;;;;56.00;22.10;;;;;;;;;;5074951;28;20256;-77
2023/12/06 01:29:34;;;;;;;58.93;23.40;;;;;;;;;;5074642;28;20204;-77
2023/12/06 01:32:02;;;;;;;50.70;22.10;;;;;;;;;;5074924;28;20223;-77
2023/12/06 01:34:29;;;;;;;46.47;19.80;;;;;;;;;;5074898;28;20191;-76
2023/12/06 01:36:56;;;;;;;53.30;19.87;;;;;;;;;;5075084;28;20195;-76
2023/12/06 01:39:23;;;;;;;53.67;20.60;;;;;;;;;;5074803;28;20214;-76
2023/12/06 01:41:51;;;;;;;51.43;20.53;;;;;;;;;;5074685;28;20203;-77
2023/12/06 01:44:18;;;;;;;61.27;21.60;;;;;;;;;;5074887;28;20729;-77
2023/12/06 01:51:46;;;;;;;49.77;20.07;;;;;;;;;;5074334;28;20237;-76
2023/12/06 01:54:14;;;;;;;45.87;20.47;;;;;;;;;;5074664;28;20656;-77
2023/12/06 01:56:42;;;;;;;47.37;20.07;;;;;;;;;;5073283;28;20203;-77
2023/12/06 01:59:11;;;;;;;47.60;22.03;;;;;;;;;;5073177;28;20199;-77
2023/12/06 02:01:38;;;;;;;58.00;21.40;;;;;;;;;;5073302;28;20200;-76
2023/12/06 02:04:06;;;;;;;55.27;21.13;;;;;;;;;;5074006;28;20238;-77
2023/12/06 02:06:33;;;;;;;55.27;21.10;;;;;;;;;;5073658;28;20191;-76
2023/12/06 02:09:02;;;;;;;53.87;22.13;;;;;;;;;;5072747;28;20199;-76
2023/12/06 02:11:29;;;;;;;50.67;19.67;;;;;;;;;;5073051;28;20254;-76
2023/12/06 02:13:56;;;;;;;46.93;20.53;;;;;;;;;;5073421;28;20196;-76
2023/12/06 02:16:23;;;;;;;52.90;21.87;;;;;;;;;;5073146;28;20211;-79
2023/12/06 02:18:50;;;;;;;49.17;20.00;;;;;;;;;;5056310;28;20663;-77
2023/12/06 02:21:17;;;;;;;47.83;19.60;;;;;;;;;;5073839;28;20199;-76
2023/12/06 02:23:46;;;;;;;43.37;19.27;;;;;;;;;;5072436;28;20215;-76
2023/12/06 02:26:13;;;;;;;48.87;19.87;;;;;;;;;;5073811;28;20203;-76
2023/12/06 02:28:41;;;;;;;47.17;19.73;;;;;;;;;;5074052;28;20203;-76
2023/12/06 02:31:08;;;;;;;45.70;19.80;;;;;;;;;;5073772;28;20211;-78
2023/12/06 02:33:35;;;;;;;51.27;20.60;;;;;;;;;;5073846;28;20195;-77
2023/12/06 02:36:03;;;;;;;51.07;20.63;;;;;;;;;;5072622;28;20195;-77
2023/12/06 02:38:32;;;;;;;47.73;21.20;;;;;;;;;;5072638;28;20241;-76
2023/12/06 02:41:01;;;;;;;53.70;20.23;;;;;;;;;;5073203;28;20198;-76
2023/12/06 02:43:28;;;;;;;51.33;21.20;;;;;;;;;;5072408;28;20249;-76
2023/12/06 02:45:55;;;;;;;48.20;20.93;;;;;;;;;;5073453;28;20218;-76
2023/12/06 02:48:22;;;;;;;52.60;21.60;;;;;;;;;;5072479;28;20195;-76
2023/12/06 02:50:49;;;;;;;57.70;22.83;;;;;;;;;;5072099;28;20219;-76
2023/12/06 02:53:16;;;;;;;54.03;20.07;;;;;;;;;;5073515;28;20214;-76
2023/12/06 02:55:43;;;;;;;53.10;21.93;;;;;;;;;;5062656;28;20253;-76
2023/12/06 02:58:11;;;;;;;62.10;21.03;;;;;;;;;;5053559;28;20204;-77
2023/12/06 03:00:38;;;;;;;50.07;19.67;;;;;;;;;;5053111;28;20249;-76
2023/12/06 03:03:06;;;;;;;59.07;23.30;;;;;;;;;;5053302;28;20553;-76
2023/12/06 03:05:33;;;;;;;56.80;22.50;;;;;;;;;;5053403;28;20237;-76
2023/12/06 03:08:00;;;;;;;56.10;22.43;;;;;;;;;;5051918;28;20208;-77
2023/12/06 03:10:27;;;;;;;57.17;21.80;;;;;;;;;;5053269;28;20195;-77
2023/12/06 03:12:54;;;;;;;63.37;22.87;;;;;;;;;;5053115;28;20224;-76
2023/12/06 03:15:21;;;;;;;56.30;21.77;;;;;;;;;;5052965;28;20211;-76
2023/12/06 03:17:49;;;;;;;56.37;21.73;;;;;;;;;;5051533;28;20687;-76
2023/12/06 03:20:16;;;;;;;60.03;23.40;;;;;;;;;;5052375;28;20199;-76
2023/12/06 03:22:43;;;;;;;65.27;23.47;;;;;;;;;;5051982;28;20204;-77
2023/12/06 03:25:10;;;;;;;61.27;23.03;;;;;;;;;;5054490;28;20232;-76
2023/12/06 03:27:38;;;;;;;59.20;23.10;;;;;;;;;;5058130;28;20192;-76
2023/12/06 03:30:06;;;;;;;46.70;19.87;;;;;;;;;;5059691;28;20188;-76
2023/12/06 03:32:33;;;;;;;57.27;20.83;;;;;;;;;;5041950;28;20684;-76
2023/12/06 03:35:00;;;;;;;54.20;20.93;;;;;;;;;;5059476;28;20260;-76
2023/12/06 03:37:27;;;;;;;58.63;22.03;;;;;;;;;;5060103;28;20637;-77
2023/12/06 03:39:58;;;;;;;58.93;22.97;;;;;;;;;;5059510;28;20195;-76
2023/12/06 03:42:25;;;;;;;60.73;22.63;;;;;;;;;;5059845;28;20199;-75
2023/12/06 03:44:52;;;;;;;52.00;21.40;;;;;;;;;;5059406;28;20187;-77
2023/12/06 03:47:19;;;;;;;51.93;21.67;;;;;;;;;;5058760;28;20238;-78
2023/12/06 03:49:47;;;;;;;57.33;21.37;;;;;;;;;;5059545;28;20208;-75
2023/12/06 03:52:14;;;;;;;57.20;21.77;;;;;;;;;;5058738;28;20699;-77
2023/12/06 03:54:41;;;;;;;60.60;20.37;;;;;;;;;;5059340;28;20211;-77
2023/12/06 03:57:08;;;;;;;59.60;20.20;;;;;;;;;;5059655;28;20265;-77
2023/12/06 03:59:35;;;;;;;51.03;20.60;;;;;;;;;;5058173;28;20271;-77
2023/12/06 04:02:03;;;;;;;58.30;21.07;;;;;;;;;;5058314;28;20667;-77
2023/12/06 04:04:30;;;;;;;52.37;21.03;;;;;;;;;;5059257;28;20188;-77
2023/12/06 04:06:57;;;;;;;53.23;19.80;;;;;;;;;;5059396;28;20646;-77
2023/12/06 04:09:24;;;;;;;52.57;20.03;;;;;;;;;;5057631;28;20257;-77
2023/12/06 04:11:53;;;;;;;54.53;20.67;;;;;;;;;;5059023;28;20273;-77
2023/12/06 04:14:20;;;;;;;59.43;22.83;;;;;;;;;;5059580;28;20250;-77
2023/12/06 04:16:49;;;;;;;57.37;21.37;;;;;;;;;;5057768;28;20200;-76
2023/12/06 04:19:16;;;;;;;58.23;22.30;;;;;;;;;;5059106;28;20649;-76
2023/12/06 04:21:44;;;;;;;52.47;21.83;;;;;;;;;;5059099;28;20200;-76
2023/12/06 04:24:11;;;;;;;51.10;20.77;;;;;;;;;;5059116;28;20309;-76
2023/12/06 04:26:38;;;;;;;57.87;21.27;;;;;;;;;;5081347;28;20195;-77
2023/12/06 04:29:05;;;;;;;64.77;23.03;;;;;;;;;;5078490;28;20195;-77
2023/12/06 04:31:32;;;;;;;56.93;23.27;;;;;;;;;;5078861;28;20219;-77
2023/12/06 04:33:59;;;;;;;61.27;24.50;;;;;;;;;;5079278;28;20195;-77
2023/12/06 04:36:26;;;;;;;54.53;23.93;;;;;;;;;;5076717;28;20615;-77
2023/12/06 04:38:54;;;;;;;53.50;21.33;;;;;;;;;;5075750;28;20675;-77
2023/12/06 04:41:21;;;;;;;56.33;23.27;;;;;;;;;;5075456;28;20203;-77
2023/12/06 04:43:48;;;;;;;63.87;22.73;;;;;;;;;;5072238;28;20200;-78
2023/12/06 04:46:15;;;;;;;59.93;23.13;;;;;;;;;;5082276;28;20206;-77
2023/12/06 04:48:43;;;;;;;65.33;24.27;;;;;;;;;;5094757;28;20225;-77
2023/12/06 04:51:11;;;;;;;50.30;21.37;;;;;;;;;;5095863;28;20207;-77
2023/12/06 04:53:37;;;;;;;60.47;23.03;;;;;;;;;;5089230;28;20195;-77
2023/12/06 04:56:05;;;;;;;64.83;23.93;;;;;;;;;;5077630;28;20207;-77
2023/12/06 04:58:32;;;;;;;67.70;24.57;;;;;;;;;;5070235;28;20219;-77
2023/12/06 05:00:59;;;;;;;65.90;25.03;;;;;;;;;;5079446;28;20231;-77
2023/12/06 05:03:27;;;;;;;64.93;25.57;;;;;;;;;;5074233;28;20239;-77
2023/12/06 05:05:54;;;;;;;62.07;23.37;;;;;;;;;;5061942;28;20631;-77
2023/12/06 05:08:21;;;;;;;74.10;27.97;;;;;;;;;;5063523;28;20247;-77
2023/12/06 05:10:48;;;;;;;60.40;23.43;;;;;;;;;;5072892;28;20220;-77
2023/12/06 05:13:15;;;;;;;62.13;22.97;;;;;;;;;;5073448;28;20284;-77
2023/12/06 05:15:43;;;;;;;60.13;23.93;;;;;;;;;;5073908;28;20268;-77
2023/12/06 05:18:10;;;;;;;59.53;25.83;;;;;;;;;;5086291;28;20711;-77
2023/12/06 05:20:38;;;;;;;55.03;21.50;;;;;;;;;;5093537;28;20234;-77
2023/12/06 05:23:05;;;;;;;56.03;21.47;;;;;;;;;;5094817;28;20310;-77
2023/12/06 05:25:32;;;;;;;57.17;23.00;;;;;;;;;;5094594;28;20243;-77
2023/12/06 05:27:59;;;;;;;52.70;21.37;;;;;;;;;;5094591;28;20763;-77
2023/12/06 05:30:27;;;;;;;56.87;22.03;;;;;;;;;;5094554;28;20234;-78
2023/12/06 05:32:54;;;;;;;67.60;23.70;;;;;;;;;;5094835;28;20284;-77
2023/12/06 05:35:21;;;;;;;53.10;21.77;;;;;;;;;;5088608;28;20234;-77
2023/12/06 05:37:48;;;;;;;68.20;23.53;;;;;;;;;;5089674;28;20250;-77
2023/12/06 05:40:17;;;;;;;52.77;21.57;;;;;;;;;;5074810;28;20246;-77
2023/12/06 05:42:44;;;;;;;65.67;24.20;;;;;;;;;;5073833;28;20219;-78
2023/12/06 05:45:11;;;;;;;63.17;23.93;;;;;;;;;;5081368;28;20231;-77
2023/12/06 05:47:38;;;;;;;62.47;24.63;;;;;;;;;;5082491;28;20695;-77
2023/12/06 05:50:10;;;;;;;56.40;22.10;;;;;;;;;;5062151;28;20235;-77
2023/12/06 05:52:37;;;;;;;51.37;20.17;;;;;;;;;;5073094;28;20230;-77
2023/12/06 05:55:05;;;;;;;53.83;20.83;;;;;;;;;;5072945;28;20236;-77
2023/12/06 05:57:32;;;;;;;56.57;21.87;;;;;;;;;;5067421;28;20253;-77
2023/12/06 06:00:00;;;;;;;46.93;19.90;;;;;;;;;;5073900;28;20242;-77
2023/12/06 06:02:36;;;;;;;55.57;22.63;;;;;;;;;;5068834;28;20599;-77
2023/12/06 06:05:04;;;;;;;50.90;20.07;;;;;;;;;;5063979;28;20316;-77
2023/12/06 06:07:31;;;;;;;50.13;21.43;;;;;;;;;;5059137;28;20215;-77
2023/12/06 06:09:59;;;;;;;50.53;19.93;;;;;;;;;;5057249;28;20278;-77
2023/12/06 06:12:31;;;;;;;54.57;21.23;;;;;;;;;;5062359;28;20575;-77
2023/12/06 06:14:58;;;;;;;45.40;19.00;;;;;;;;;;5053506;28;20200;-77
2023/12/06 06:17:25;;;;;;;48.80;19.63;;;;;;;;;;5060764;28;20203;-77
2023/12/06 06:19:52;;;;;;;56.43;21.50;;;;;;;;;;5062169;28;20193;-77
2023/12/06 06:22:19;;;;;;;49.67;19.43;;;;;;;;;;5064245;28;20200;-77
2023/12/06 06:24:47;;;;;;;48.93;19.73;;;;;;;;;;5063882;28;20246;-77
2023/12/06 06:27:14;;;;;;;64.70;22.53;;;;;;;;;;5062743;28;20219;-78
2023/12/06 06:29:41;;;;;;;44.13;19.30;;;;;;;;;;5063692;28;20629;-77
2023/12/06 06:32:08;;;;;;;46.93;19.80;;;;;;;;;;5054039;28;20223;-77
2023/12/06 06:34:35;;;;;;;50.03;19.67;;;;;;;;;;5053977;28;20249;-77
2023/12/06 06:37:04;;;;;;;52.23;20.83;;;;;;;;;;5054081;28;20274;-77
2023/12/06 06:39:32;;;;;;;50.87;18.97;;;;;;;;;;5054036;28;20212;-77
2023/12/06 06:41:59;;;;;;;53.90;21.50;;;;;;;;;;5072754;28;20219;-77
2023/12/06 06:44:28;;;;;;;46.13;19.13;;;;;;;;;;5074070;28;20195;-77
2023/12/06 06:46:55;;;;;;;62.00;21.50;;;;;;;;;;5073610;28;20198;-77
2023/12/06 06:49:24;;;;;;;55.67;20.60;;;;;;;;;;5068208;28;20204;-77
2023/12/06 06:51:51;;;;;;;58.27;21.30;;;;;;;;;;5073222;28;20196;-77
2023/12/06 06:54:18;;;;;;;54.20;21.10;;;;;;;;;;5073527;28;20214;-77
2023/12/06 06:56:45;;;;;;;51.23;21.67;;;;;;;;;;5073421;28;20200;-77
2023/12/06 06:59:12;;;;;;;56.43;22.13;;;;;;;;;;5073130;28;20584;-77
2023/12/06 07:01:39;;;;;;;92.10;33.47;;;;;;;;;;5056249;28;20204;-77
2023/12/06 07:04:07;;;;;;;175.10;63.10;;;;;;;;;;5053520;28;20752;-76
2023/12/06 07:06:34;;;;;;;251.10;96.43;;;;;;;;;;5052945;28;20200;-78
2023/12/06 07:09:02;;;;;;;306.67;112.67;;;;;;;;;;5052410;28;20554;-77
2023/12/06 07:11:29;;;;;;;119.10;49.07;;;;;;;;;;5053357;28;20208;-77
2023/12/06 07:13:57;;;;;;;72.20;35.47;;;;;;;;;;5052047;28;20281;-77
2023/12/06 07:16:28;;;;;;;60.33;25.87;;;;;;;;;;5053247;28;20227;-77
2023/12/06 07:18:55;;;;;;;85.70;37.53;;;;;;;;;;5053406;28;20199;-77
2023/12/06 07:21:22;;;;;;;117.20;63.87;;;;;;;;;;5071005;28;20202;-77
2023/12/06 07:23:50;;;;;;;88.90;43.30;;;;;;;;;;5067524;28;20660;-77
2023/12/06 07:26:18;;;;;;;60.60;26.33;;;;;;;;;;5053157;28;20382;-77
2023/12/06 07:28:45;;;;;;;63.80;25.23;;;;;;;;;;5051923;28;20208;-77
2023/12/06 07:31:13;;;;;;;61.43;23.17;;;;;;;;;;5052908;28;20193;-77
2023/12/06 07:33:41;;;;;;;58.10;23.77;;;;;;;;;;5053223;28;20618;-77
2023/12/06 07:36:10;;;;;;;101.23;33.30;;;;;;;;;;5053710;28;20202;-77
2023/12/06 07:38:37;;;;;;;97.93;33.73;;;;;;;;;;5051841;28;20210;-77
2023/12/06 07:41:04;;;;;;;125.30;37.40;;;;;;;;;;5053272;28;20204;-77
2023/12/06 07:43:33;;;;;;;118.00;35.50;;;;;;;;;;5052938;28;20211;-77
2023/12/06 07:46:02;;;;;;;111.83;38.97;;;;;;;;;;5052717;28;20230;-77
2023/12/06 07:48:29;;;;;;;81.47;34.80;;;;;;;;;;5065966;28;20206;-77
2023/12/06 07:50:57;;;;;;;169.83;57.10;;;;;;;;;;5072783;28;20249;-77
2023/12/06 07:53:24;;;;;;;184.97;59.57;;;;;;;;;;5072758;28;20223;-77
2023/12/06 07:55:55;;;;;;;80.60;27.93;;;;;;;;;;5072964;28;20199;-77
2023/12/06 07:58:22;;;;;;;127.57;39.27;;;;;;;;;;5073104;28;20278;-77
2023/12/06 08:00:49;;;;;;;240.63;62.90;;;;;;;;;;5072791;28;20207;-77
2023/12/06 08:03:18;;;;;;;331.00;80.90;;;;;;;;;;5072515;28;20206;-77
2023/12/06 08:05:45;;;;;;;182.33;48.73;;;;;;;;;;5072766;28;20207;-77
2023/12/06 08:08:13;;;;;;;277.97;67.70;;;;;;;;;;5072666;28;20200;-78
2023/12/06 08:10:42;;;;;;;254.73;67.33;;;;;;;;;;5058882;28;20709;-77
2023/12/06 08:13:10;;;;;;;163.33;43.50;;;;;;;;;;5055442;28;20224;-77
2023/12/06 08:15:36;;;;;;;116.23;34.50;;;;;;;;;;5055084;28;20210;-77
2023/12/06 08:18:04;;;;;;;50.07;20.67;;;;;;;;;;5056977;28;20203;-77
2023/12/06 08:20:31;;;;;;;73.43;24.13;;;;;;;;;;5055883;28;20303;-77
2023/12/06 08:22:58;;;;;;;215.53;51.73;;;;;;;;;;5056658;28;20203;-77
2023/12/06 08:25:25;;;;;;;72.70;25.57;;;;;;;;;;5056654;28;20255;-77
2023/12/06 08:27:52;;;;;;;268.47;67.03;;;;;;;;;;5056389;28;20204;-77
2023/12/06 08:30:19;;;;;;;269.93;71.20;;;;;;;;;;5056120;28;20192;-77
2023/12/06 08:32:47;;;;;;;214.10;55.67;;;;;;;;;;5056432;28;20233;-77
2023/12/06 08:35:14;;;;;;;207.10;56.20;;;;;;;;;;5056492;28;20254;-77
2023/12/06 08:37:41;;;;;;;208.97;59.27;;;;;;;;;;5058916;28;20199;-78
2023/12/06 08:40:10;;;;;;;288.23;79.13;;;;;;;;;;5054981;28;20203;-77
2023/12/06 08:42:38;;;;;;;150.37;49.67;;;;;;;;;;5056082;28;20200;-77
2023/12/06 08:45:07;;;;;;;163.53;54.73;;;;;;;;;;5054911;28;20207;-77
2023/12/06 08:47:35;;;;;;;178.97;57.77;;;;;;;;;;5054660;28;20203;-77
2023/12/06 08:50:04;;;;;;;68.73;26.97;;;;;;;;;;5055884;28;20195;-77
2023/12/06 08:52:34;;;;;;;55.70;22.13;;;;;;;;;;5055708;28;20219;-77
2023/12/06 08:55:03;;;;;;;99.43;40.73;;;;;;;;;;5054796;28;20645;-78
2023/12/06 08:57:31;;;;;;;78.03;32.43;;;;;;;;;;5055736;28;20197;-77
2023/12/06 08:59:58;;;;;;;112.97;44.63;;;;;;;;;;5055634;28;20200;-77
2023/12/06 09:02:25;;;;;;;92.93;38.00;;;;;;;;;;5055648;28;20196;-77
2023/12/06 09:04:55;;;;;;;53.90;22.10;;;;;;;;;;5055938;28;20250;-78
2023/12/06 09:07:22;;;;;;;44.53;20.07;;;;;;;;;;5055669;28;20192;-77
2023/12/06 09:09:49;;;;;;;45.50;19.87;;;;;;;;;;5055355;28;20204;-77
2023/12/06 09:12:17;;;;;;;40.93;18.50;;;;;;;;;;5055466;28;20212;-77
2023/12/06 09:14:44;;;;;;;41.03;19.40;;;;;;;;;;5062451;28;20243;-77
2023/12/06 09:17:11;;;;;;;46.70;21.13;;;;;;;;;;5075590;28;20203;-77
2023/12/06 09:19:39;;;;;;;50.20;20.97;;;;;;;;;;5067680;28;20254;-77
2023/12/06 09:22:07;;;;;;;58.20;24.73;;;;;;;;;;5054834;28;20207;-77
2023/12/06 09:24:34;;;;;;;66.47;27.63;;;;;;;;;;5053639;28;20239;-77
2023/12/06 09:27:03;;;;;;;42.50;18.60;;;;;;;;;;5054582;28;20200;-77
2023/12/06 09:29:31;;;;;;;45.03;19.07;;;;;;;;;;5061638;28;20187;-77
2023/12/06 09:31:58;;;;;;;59.93;24.00;;;;;;;;;;5073940;28;20206;-77
2023/12/06 09:34:25;;;;;;;53.70;21.60;;;;;;;;;;5061689;28;20302;-77
2023/12/06 09:37:08;;;;;;;42.93;16.80;;;;;;;;;;5073902;28;20329;-76
2023/12/06 09:39:37;;;;;;;39.67;16.57;;;;;;;;;;5067972;28;20195;-77
2023/12/06 09:42:05;;;;;;;56.30;22.10;;;;;;;;;;5073481;28;20196;-77
2023/12/06 09:44:32;;;;;;;69.80;27.60;;;;;;;;;;5074948;28;20542;-76
2023/12/06 09:47:00;;;;;;;53.17;21.20;;;;;;;;;;5073433;28;20199;-77
2023/12/06 09:49:27;;;;;;;45.47;19.93;;;;;;;;;;5074706;28;20268;-77
2023/12/06 09:51:59;;;;;;;50.00;21.07;;;;;;;;;;5073428;28;20203;-76
2023/12/06 09:54:26;;;;;;;43.77;20.57;;;;;;;;;;5067459;28;20230;-77
2023/12/06 09:56:54;;;;;;;51.57;19.47;;;;;;;;;;5054444;28;20650;-76
2023/12/06 09:59:21;;;;;;;41.20;18.93;;;;;;;;;;5056272;28;20649;-76
2023/12/06 10:01:48;;;;;;;37.53;16.60;;;;;;;;;;5054300;28;20192;-77
2023/12/06 10:04:15;;;;;;;38.13;17.00;;;;;;;;;;5055026;28;20196;-77
2023/12/06 10:06:42;;;;;;;42.97;19.07;;;;;;;;;;5064752;28;20261;-76
2023/12/06 10:09:10;;;;;;;49.63;20.97;;;;;;;;;;5070881;28;20217;-77
2023/12/06 10:11:37;;;;;;;44.17;19.00;;;;;;;;;;5054176;28;20196;-76
2023/12/06 10:14:04;;;;;;;43.70;20.33;;;;;;;;;;5054209;28;20619;-77
2023/12/06 10:16:35;;;;;;;41.90;19.37;;;;;;;;;;5052853;28;20207;-77
2023/12/06 10:19:03;;;;;;;39.20;17.23;;;;;;;;;;5054149;28;20204;-76
2023/12/06 10:21:30;;;;;;;50.87;21.10;;;;;;;;;;5055105;28;20271;-77
2023/12/06 10:24:00;;;;;;;41.97;19.10;;;;;;;;;;5073672;28;20223;-76
2023/12/06 10:26:31;;;;;;;36.10;17.43;;;;;;;;;;5073745;28;20203;-77
2023/12/06 10:28:59;;;;;;;38.57;16.77;;;;;;;;;;5072487;28;20187;-77
2023/12/06 10:31:27;;;;;;;40.73;18.33;;;;;;;;;;5066817;28;20188;-77
2023/12/06 10:33:56;;;;;;;42.87;19.03;;;;;;;;;;5053463;28;20248;-76
2023/12/06 10:36:27;;;;;;;61.60;23.27;;;;;;;;;;5053450;28;20204;-77
2023/12/06 10:38:55;;;;;;;45.30;19.43;;;;;;;;;;5052557;28;20577;-76
2023/12/06 10:41:25;;;;;;;37.90;16.70;;;;;;;;;;5062960;28;20199;-76
2023/12/06 10:43:54;;;;;;;41.87;16.90;;;;;;;;;;5074242;28;20256;-77
2023/12/06 10:46:24;;;;;;;35.63;15.17;;;;;;;;;;5073487;28;20196;-77
2023/12/06 10:48:52;;;;;;;39.53;16.10;;;;;;;;;;5072445;28;20207;-77
2023/12/06 10:51:20;;;;;;;38.77;15.87;;;;;;;;;;5072796;28;20207;-77
2023/12/06 10:53:48;;;;;;;37.33;15.77;;;;;;;;;;5072647;28;20593;-77
2023/12/06 10:56:15;;;;;;;41.33;16.50;;;;;;;;;;5072561;28;20253;-77
2023/12/06 10:58:43;;;;;;;46.27;17.60;;;;;;;;;;5072598;28;20668;-76
2023/12/06 11:01:11;;;;;;;40.03;16.77;;;;;;;;;;5073456;28;20260;-77
2023/12/06 11:03:38;;;;;;;42.70;17.73;;;;;;;;;;5072507;28;20203;-76
2023/12/06 11:06:23;;;;;;;221.77;93.57;;;;;;;;;;5072136;28;20206;-77
2023/12/06 11:09:19;;;;;;;674.57;289.93;;;;;;;;;;5072397;28;20203;-76
2023/12/06 11:11:59;;;;;;;290.93;101.27;;;;;;;;;;5071929;28;20259;-77
2023/12/06 11:14:43;;;;;;;145.37;46.37;;;;;;;;;;5071929;28;20644;-77
2023/12/06 11:17:33;;;;;;;82.73;28.07;;;;;;;;;;5072056;28;20229;-77
2023/12/06 11:20:00;;;;;;;187.43;50.57;;;;;;;;;;5072256;28;20278;-77
2023/12/06 11:22:28;;;;;;;136.07;41.60;;;;;;;;;;5072904;28;20574;-77
2023/12/06 11:24:56;;;;;;;67.67;22.67;;;;;;;;;;5073329;28;20235;-77
2023/12/06 11:27:23;;;;;;;158.50;48.60;;;;;;;;;;5073049;28;20199;-77
2023/12/06 11:29:51;;;;;;;84.33;26.97;;;;;;;;;;5073118;28;20619;-77
2023/12/06 11:32:18;;;;;;;40.17;16.70;;;;;;;;;;5073236;28;20203;-77
2023/12/06 11:34:55;;;;;;;114.43;30.00;;;;;;;;;;5073131;28;20223;-77
2023/12/06 11:37:22;;;;;;;126.70;34.77;;;;;;;;;;5035571;28;20297;-77
2023/12/06 11:40:11;;;;;;;212.43;51.57;;;;;;;;;;5052911;28;20205;-77
2023/12/06 11:42:39;;;;;;;267.90;69.53;;;;;;;;;;5053373;28;20196;-77
2023/12/06 11:45:31;;;;;;;220.43;53.03;;;;;;;;;;5052088;28;20210;-77
2023/12/06 11:48:00;;;;;;;232.30;61.43;;;;;;;;;;5071706;28;20192;-76
2023/12/06 11:50:28;;;;;;;136.83;41.73;;;;;;;;;;5055685;28;20303;-76
2023/12/06 11:52:56;;;;;;;44.73;17.87;;;;;;;;;;5056937;28;20207;-76
2023/12/06 11:55:23;;;;;;;93.03;32.40;;;;;;;;;;5056787;28;20227;-77
2023/12/06 11:58:01;;;;;;;64.83;24.83;;;;;;;;;;5056683;28;20196;-77
2023/12/06 12:00:30;;;;;;;90.63;30.17;;;;;;;;;;5059783;28;20227;-77
2023/12/06 12:02:59;;;;;;;99.03;33.50;;;;;;;;;;5076459;28;20210;-76
2023/12/06 12:05:26;;;;;;;121.50;37.73;;;;;;;;;;5072440;28;20192;-76
2023/12/06 12:07:53;;;;;;;57.30;22.27;;;;;;;;;;5055647;28;20204;-76
2023/12/06 12:10:20;;;;;;;69.20;27.00;;;;;;;;;;5056702;28;20212;-76
2023/12/06 12:12:50;;;;;;;76.83;29.13;;;;;;;;;;5056608;28;20227;-77
2023/12/06 12:15:18;;;;;;;71.17;29.17;;;;;;;;;;5056485;28;20230;-76
2023/12/06 12:17:45;;;;;;;55.00;23.70;;;;;;;;;;5055277;28;20192;-77
2023/12/06 12:20:12;;;;;;;60.20;24.70;;;;;;;;;;5071387;28;20192;-77
2023/12/06 12:22:50;;;;;;;61.70;25.07;;;;;;;;;;5076340;28;20195;-77
2023/12/06 12:25:18;;;;;;;52.77;21.03;;;;;;;;;;5074901;28;20227;-76
2023/12/06 12:27:47;;;;;;;41.17;17.23;;;;;;;;;;5075289;28;20210;-77
2023/12/06 12:30:15;;;;;;;36.40;17.03;;;;;;;;;;5077030;28;20649;-76
2023/12/06 12:32:52;;;;;;;41.47;18.37;;;;;;;;;;5055416;28;20215;-77
2023/12/06 12:35:20;;;;;;;40.83;17.93;;;;;;;;;;5056224;28;20223;-77
2023/12/06 12:37:47;;;;;;;37.83;16.60;;;;;;;;;;5055992;28;20781;-76
2023/12/06 12:40:14;;;;;;;38.77;15.87;;;;;;;;;;5062901;28;20250;-77
2023/12/06 12:42:42;;;;;;;39.87;19.60;;;;;;;;;;5066883;28;20191;-77
2023/12/06 12:45:14;;;;;;;51.63;22.93;;;;;;;;;;5074402;28;20207;-77
2023/12/06 12:47:41;;;;;;;50.33;21.53;;;;;;;;;;5064994;28;20290;-77
2023/12/06 12:50:09;;;;;;;40.67;17.13;;;;;;;;;;5066241;28;20196;-76
2023/12/06 12:52:40;;;;;;;41.97;17.73;;;;;;;;;;5074065;28;20199;-77
2023/12/06 12:55:12;;;;;;;32.17;15.17;;;;;;;;;;5069907;28;20226;-77
2023/12/06 12:57:44;;;;;;;36.23;17.80;;;;;;;;;;5074415;28;20195;-77
2023/12/06 13:00:18;;;;;;;49.53;20.97;;;;;;;;;;5075270;28;20258;-77
2023/12/06 13:02:49;;;;;;;42.50;19.87;;;;;;;;;;5070480;28;20218;-77
2023/12/06 13:05:17;;;;;;;42.13;18.53;;;;;;;;;;5075102;28;20196;-77
2023/12/06 13:07:50;;;;;;;35.63;17.40;;;;;;;;;;5069488;28;20723;-77
2023/12/06 13:10:18;;;;;;;34.83;16.93;;;;;;;;;;5075034;28;20217;-77
2023/12/06 13:12:45;;;;;;;40.97;16.07;;;;;;;;;;5074065;28;20205;-77
2023/12/06 13:15:13;;;;;;;36.90;16.93;;;;;;;;;;5073707;28;20215;-77
2023/12/06 13:17:40;;;;;;;39.53;17.87;;;;;;;;;;5075253;28;20203;-76
2023/12/06 13:20:08;;;;;;;34.67;16.17;;;;;;;;;;5075124;28;20207;-77
2023/12/06 13:22:35;;;;;;;30.27;14.37;;;;;;;;;;5068682;28;20230;-77
2023/12/06 13:25:06;;;;;;;34.70;15.20;;;;;;;;;;5072257;28;20253;-77
2023/12/06 13:27:34;;;;;;;28.83;14.50;;;;;;;;;;5074476;28;20188;-77
2023/12/06 13:30:01;;;;;;;40.57;15.10;;;;;;;;;;5074095;28;20195;-77
2023/12/06 13:32:28;;;;;;;30.40;15.23;;;;;;;;;;5072256;28;20203;-77
2023/12/06 13:34:56;;;;;;;33.03;14.30;;;;;;;;;;5071280;28;20212;-76
2023/12/06 13:37:23;;;;;;;29.73;15.20;;;;;;;;;;5071407;28;20278;-77
2023/12/06 13:39:51;;;;;;;30.23;13.40;;;;;;;;;;5060756;28;20235;-77
2023/12/06 13:42:19;;;;;;;31.73;14.03;;;;;;;;;;5066590;28;20567;-77
2023/12/06 13:44:46;;;;;;;33.47;14.67;;;;;;;;;;5071151;28;20231;-77
2023/12/06 13:47:13;;;;;;;30.67;14.63;;;;;;;;;;5072929;28;20849;-76
2023/12/06 13:49:41;;;;;;;31.07;14.60;;;;;;;;;;5069335;28;20243;-77
2023/12/06 13:52:08;;;;;;;36.80;15.00;;;;;;;;;;5066951;28;20235;-77
2023/12/06 13:54:36;;;;;;;30.23;15.10;;;;;;;;;;5068017;28;20235;-77
2023/12/06 13:57:07;;;;;;;31.80;15.67;;;;;;;;;;5064773;28;20226;-77
2023/12/06 13:59:35;;;;;;;32.17;15.57;;;;;;;;;;5072619;28;20235;-77
2023/12/06 14:02:02;;;;;;;35.53;16.10;;;;;;;;;;5072104;28;20254;-76
2023/12/06 14:04:30;;;;;;;36.23;15.67;;;;;;;;;;5073195;28;20227;-76
2023/12/06 14:06:58;;;;;;;29.40;14.50;;;;;;;;;;5067290;28;20673;-76
2023/12/06 14:09:30;;;;;;;36.73;17.07;;;;;;;;;;5067643;28;20605;-76
2023/12/06 14:11:57;;;;;;;31.93;14.87;;;;;;;;;;5071812;28;20230;-77
2023/12/06 14:14:25;;;;;;;33.37;15.37;;;;;;;;;;5072728;28;20250;-76
2023/12/06 14:16:52;;;;;;;35.93;15.57;;;;;;;;;;5070459;28;20227;-77
2023/12/06 14:19:19;;;;;;;39.10;15.43;;;;;;;;;;5070116;28;20532;-77
2023/12/06 14:21:46;;;;;;;38.60;16.10;;;;;;;;;;5065645;28;20223;-77
2023/12/06 14:24:14;;;;;;;36.63;15.57;;;;;;;;;;5070088;28;20277;-77
2023/12/06 14:26:41;;;;;;;37.50;16.53;;;;;;;;;;5066287;28;20264;-77